createdAt,value
2019-05-26T00:02:19.522Z,17.90
2019-05-26T00:04:52.157Z,17.90
2019-05-26T00:07:30.565Z,17.90
2019-05-26T00:09:58.993Z,17.80
2019-05-26T00:12:31.278Z,17.70
2019-05-26T00:15:03.686Z,17.70
2019-05-26T00:17:36.181Z,17.60
2019-05-26T00:20:09.165Z,17.60
2019-05-26T00:22:41.729Z,17.60
2019-05-26T00:25:15.498Z,17.60
2019-05-26T00:27:48.187Z,17.60
2019-05-26T00:30:20.933Z,17.50
2019-05-26T00:32:54.684Z,17.50
2019-05-26T00:35:27.066Z,17.50
2019-05-26T00:38:00.644Z,17.60
2019-05-26T00:40:32.958Z,17.50
2019-05-26T00:43:05.332Z,17.50
2019-05-26T00:45:40.838Z,17.50
2019-05-26T00:48:13.382Z,17.50
2019-05-26T00:50:45.773Z,17.60
2019-05-26T00:53:18.487Z,17.50
2019-05-26T00:55:51.666Z,17.50
2019-05-26T00:58:24.384Z,17.50
2019-05-26T01:00:57.620Z,17.50
2019-05-26T01:03:30.149Z,17.50
2019-05-26T01:06:02.869Z,17.40
2019-05-26T01:08:35.316Z,17.40
2019-05-26T01:11:07.567Z,17.40
2019-05-26T01:13:40.194Z,17.40
2019-05-26T01:16:12.581Z,17.30
2019-05-26T01:18:45.282Z,17.30
2019-05-26T01:21:17.526Z,17.20
2019-05-26T01:23:49.894Z,17.20
2019-05-26T01:26:22.427Z,17.10
2019-05-26T01:28:54.916Z,17.10
2019-05-26T01:31:27.583Z,17.00
2019-05-26T01:34:00.156Z,17.00
2019-05-26T01:36:32.902Z,17.00
2019-05-26T01:39:07.427Z,16.90
2019-05-26T01:41:39.719Z,16.90
2019-05-26T01:44:12.174Z,16.90
2019-05-26T01:46:44.736Z,16.90
2019-05-26T01:49:17.101Z,16.90
2019-05-26T01:51:49.701Z,16.80
2019-05-26T01:54:22.279Z,16.80
2019-05-26T01:56:54.781Z,16.80
2019-05-26T01:59:27.475Z,16.80
2019-05-26T02:02:00.315Z,16.80
2019-05-26T02:04:32.889Z,16.70
2019-05-26T02:07:05.595Z,16.70
2019-05-26T02:09:38.198Z,16.70
2019-05-26T02:12:10.741Z,16.60
2019-05-26T02:14:43.943Z,16.60
2019-05-26T02:17:16.613Z,16.60
2019-05-26T02:19:50.124Z,16.60
2019-05-26T02:22:22.594Z,16.60
2019-05-26T02:24:54.997Z,16.60
2019-05-26T02:27:28.782Z,16.50
2019-05-26T02:30:01.729Z,16.50
2019-05-26T02:32:34.473Z,16.50
2019-05-26T02:35:08.728Z,16.50
2019-05-26T02:37:41.419Z,16.40
2019-05-26T02:40:15.821Z,16.40
2019-05-26T02:42:48.276Z,16.40
2019-05-26T02:45:23.384Z,16.30
2019-05-26T02:47:55.969Z,16.30
2019-05-26T02:50:28.543Z,16.30
2019-05-26T02:53:00.825Z,16.30
2019-05-26T02:55:33.199Z,16.20
2019-05-26T02:58:05.532Z,16.20
2019-05-26T03:00:46.112Z,16.20
2019-05-26T03:03:18.939Z,16.10
2019-05-26T03:05:52.366Z,16.10
2019-05-26T03:08:25.852Z,16.10
2019-05-26T03:11:01.162Z,16.10
2019-05-26T03:13:36.230Z,16.00
2019-05-26T03:16:10.932Z,16.00
2019-05-26T03:18:44.442Z,16.00
2019-05-26T03:21:20.065Z,16.00
2019-05-26T03:23:54.619Z,15.90
2019-05-26T03:26:30.073Z,15.90
2019-05-26T03:29:03.769Z,15.90
2019-05-26T03:31:36.574Z,15.80
2019-05-26T03:34:09.059Z,15.80
2019-05-26T03:36:42.775Z,15.80
2019-05-26T03:39:15.293Z,15.70
2019-05-26T03:41:47.727Z,15.70
2019-05-26T03:44:20.131Z,15.70
2019-05-26T03:46:52.730Z,15.60
2019-05-26T03:49:25.113Z,15.60
2019-05-26T03:51:57.533Z,15.60
2019-05-26T03:54:30.077Z,15.60
2019-05-26T03:57:02.618Z,15.50
2019-05-26T03:59:34.887Z,15.50
2019-05-26T04:02:07.334Z,15.50
2019-05-26T04:04:39.884Z,15.50
2019-05-26T04:07:12.602Z,15.40
2019-05-26T04:10:03.109Z,15.40
2019-05-26T04:12:20.177Z,15.40
2019-05-26T04:14:52.911Z,15.40
2019-05-26T04:17:25.235Z,15.40
2019-05-26T04:19:58.582Z,15.40
2019-05-26T04:22:30.971Z,15.40
2019-05-26T04:25:03.412Z,15.40
2019-05-26T04:27:35.995Z,15.40
2019-05-26T04:30:08.615Z,15.40
2019-05-26T04:32:40.864Z,15.40
2019-05-26T04:35:13.402Z,15.40
2019-05-26T04:37:46.085Z,15.40
2019-05-26T04:40:27.758Z,15.40
2019-05-26T04:42:53.000Z,15.40
2019-05-26T04:45:25.846Z,15.40
2019-05-26T04:47:58.637Z,15.50
2019-05-26T04:50:31.332Z,15.50
2019-05-26T04:53:06.816Z,15.50
2019-05-26T04:55:37.829Z,15.50
2019-05-26T04:58:10.241Z,15.50
2019-05-26T05:00:42.769Z,15.50
2019-05-26T05:03:15.186Z,15.50
2019-05-26T05:05:47.457Z,15.50
2019-05-26T05:08:19.789Z,15.50
2019-05-26T05:10:52.314Z,15.50
2019-05-26T05:13:25.212Z,15.50
2019-05-26T05:15:58.081Z,15.60
2019-05-26T05:18:32.364Z,15.60
2019-05-26T05:21:05.078Z,15.70
2019-05-26T05:23:37.844Z,15.70
2019-05-26T05:26:10.197Z,15.80
2019-05-26T05:28:42.870Z,15.90
2019-05-26T05:31:16.670Z,15.90
2019-05-26T05:33:49.115Z,16.00
2019-05-26T05:36:22.441Z,16.10
2019-05-26T05:38:55.785Z,16.20
2019-05-26T05:41:28.708Z,16.30
2019-05-26T05:44:01.466Z,16.40
2019-05-26T05:46:35.839Z,16.40
2019-05-26T05:49:08.502Z,16.50
2019-05-26T05:51:41.302Z,16.50
2019-05-26T05:54:13.703Z,16.60
2019-05-26T05:56:46.321Z,16.70
2019-05-26T05:59:19.123Z,16.70
2019-05-26T06:01:51.404Z,16.80
2019-05-26T06:04:24.181Z,16.80
2019-05-26T06:09:28.424Z,16.80
2019-05-26T06:12:00.841Z,16.90
2019-05-26T06:14:33.178Z,17.00
2019-05-26T06:17:05.565Z,17.10
2019-05-26T06:19:38.106Z,17.20
2019-05-26T06:22:10.319Z,17.20
2019-05-26T06:24:43.579Z,17.30
2019-05-26T06:27:15.861Z,17.40
2019-05-26T06:29:58.498Z,17.40
2019-05-26T06:32:22.095Z,17.50
2019-05-26T06:34:54.770Z,17.60
2019-05-26T06:37:27.040Z,17.70
2019-05-26T06:40:00.540Z,17.80
2019-05-26T06:42:32.841Z,17.90
2019-05-26T06:45:05.740Z,18.00
2019-05-26T06:47:37.977Z,18.00
2019-05-26T06:50:10.775Z,18.10
2019-05-26T06:52:43.189Z,18.20
2019-05-26T06:55:16.049Z,18.20
2019-05-26T06:57:48.326Z,18.30
2019-05-26T07:00:22.457Z,18.40
2019-05-26T07:02:55.147Z,18.40
2019-05-26T07:05:27.557Z,18.40
2019-05-26T07:07:59.820Z,18.50
2019-05-26T07:10:32.177Z,18.60
2019-05-26T07:13:04.565Z,18.60
2019-05-26T07:15:37.185Z,18.70
2019-05-26T07:18:09.423Z,18.80
2019-05-26T07:20:41.892Z,18.90
2019-05-26T07:23:14.887Z,19.00
2019-05-26T07:25:47.163Z,19.10
2019-05-26T07:28:19.346Z,19.20
2019-05-26T07:30:51.974Z,19.30
2019-05-26T07:33:24.160Z,19.40
2019-05-26T07:35:56.460Z,19.50
2019-05-26T07:38:29.012Z,19.50
2019-05-26T07:41:03.118Z,19.60
2019-05-26T07:43:35.628Z,19.70
2019-05-26T07:46:07.935Z,19.70
2019-05-26T07:48:40.198Z,19.80
2019-05-26T07:51:12.526Z,19.90
2019-05-26T07:53:44.765Z,20.00
2019-05-26T07:56:16.926Z,20.00
2019-05-26T07:58:49.274Z,20.20
2019-05-26T08:01:24.364Z,20.30
2019-05-26T08:04:01.643Z,20.40
2019-05-26T08:06:34.110Z,20.50
2019-05-26T08:09:09.045Z,20.60
2019-05-26T08:11:41.500Z,20.70
2019-05-26T08:14:13.878Z,20.70
2019-05-26T08:16:46.235Z,20.80
2019-05-26T08:19:18.440Z,20.90
2019-05-26T08:21:54.489Z,21.00
2019-05-26T08:24:27.436Z,21.10
2019-05-26T08:27:02.523Z,21.20
2019-05-26T08:29:34.829Z,21.30
2019-05-26T08:32:09.926Z,21.40
2019-05-26T08:34:42.017Z,21.60
2019-05-26T08:37:14.510Z,21.60
2019-05-26T08:39:48.527Z,21.60
2019-05-26T08:42:27.210Z,21.80
2019-05-26T08:44:55.485Z,21.80
2019-05-26T08:47:27.735Z,21.80
2019-05-26T08:49:59.988Z,21.90
2019-05-26T08:52:32.276Z,21.90
2019-05-26T08:55:04.849Z,21.90
2019-05-26T08:57:37.055Z,22.00
2019-05-26T09:00:10.057Z,22.00
2019-05-26T09:02:42.346Z,22.10
2019-05-26T09:05:15.944Z,22.00
2019-05-26T09:07:48.203Z,22.00
2019-05-26T09:10:21.046Z,22.00
2019-05-26T09:13:00.703Z,22.00
2019-05-26T09:15:27.483Z,22.00
2019-05-26T09:18:01.510Z,22.10
2019-05-26T09:20:33.746Z,22.20
2019-05-26T09:23:06.108Z,22.20
2019-05-26T09:25:38.537Z,22.30
2019-05-26T09:28:10.936Z,22.30
2019-05-26T09:30:43.211Z,22.30
2019-05-26T09:33:15.618Z,22.30
2019-05-26T09:35:47.949Z,22.30
2019-05-26T09:38:20.233Z,22.30
2019-05-26T09:40:52.485Z,22.30
2019-05-26T09:43:25.469Z,22.30
2019-05-26T09:45:57.652Z,22.20
2019-05-26T09:48:30.116Z,22.30
2019-05-26T09:51:02.484Z,22.30
2019-05-26T09:53:34.742Z,22.30
2019-05-26T09:56:07.111Z,22.40
2019-05-26T09:58:39.396Z,22.40
2019-05-26T10:01:11.605Z,22.50
2019-05-26T10:03:44.016Z,22.60
2019-05-26T10:06:16.188Z,22.60
2019-05-26T10:08:49.105Z,22.70
2019-05-26T10:11:21.625Z,22.80
2019-05-26T10:13:53.872Z,22.80
2019-05-26T10:16:26.087Z,22.90
2019-05-26T10:18:59.374Z,22.90
2019-05-26T10:21:31.760Z,22.90
2019-05-26T10:24:04.110Z,22.90
2019-05-26T10:26:36.303Z,22.90
2019-05-26T10:29:08.575Z,22.90
2019-05-26T10:31:40.940Z,22.90
2019-05-26T10:34:13.866Z,23.00
2019-05-26T10:36:46.164Z,23.00
2019-05-26T10:39:18.552Z,23.00
2019-05-26T10:41:51.326Z,23.10
2019-05-26T10:44:23.965Z,23.10
2019-05-26T10:46:57.842Z,23.10
2019-05-26T10:49:30.393Z,23.20
2019-05-26T10:52:02.601Z,23.20
2019-05-26T10:54:35.089Z,23.20
2019-05-26T10:57:07.417Z,23.30
2019-05-26T10:59:40.545Z,23.30
2019-05-26T11:02:12.708Z,23.30
2019-05-26T11:04:46.093Z,23.40
2019-05-26T11:07:18.370Z,23.40
2019-05-26T11:09:50.728Z,23.50
2019-05-26T11:12:23.079Z,23.50
2019-05-26T11:14:56.469Z,23.50
2019-05-26T11:17:30.013Z,23.50
2019-05-26T11:20:02.341Z,23.60
2019-05-26T11:22:34.589Z,23.60
2019-05-26T11:25:07.221Z,23.70
2019-05-26T11:27:39.369Z,23.80
2019-05-26T11:30:12.573Z,23.80
2019-05-26T11:32:44.872Z,23.90
2019-05-26T11:35:17.257Z,24.00
2019-05-26T11:37:49.477Z,24.00
2019-05-26T11:40:22.207Z,24.10
2019-05-26T11:42:55.409Z,24.10
2019-05-26T11:45:28.130Z,24.20
2019-05-26T11:48:00.444Z,24.20
2019-05-26T11:50:32.791Z,24.30
2019-05-26T11:53:05.112Z,24.30
2019-05-26T11:55:37.470Z,24.30
2019-05-26T11:58:09.649Z,24.40
2019-05-26T12:00:42.004Z,24.40
2019-05-26T12:03:15.110Z,24.40
2019-05-26T12:05:48.695Z,24.50
2019-05-26T12:08:23.308Z,24.60
2019-05-26T12:10:58.717Z,24.70
2019-05-26T12:13:32.124Z,24.70
2019-05-26T12:16:04.543Z,24.80
2019-05-26T12:18:36.785Z,24.80
2019-05-26T12:21:11.103Z,24.80
2019-05-26T12:23:46.124Z,24.80
2019-05-26T12:26:18.566Z,24.70
2019-05-26T12:28:51.107Z,24.70
2019-05-26T12:31:23.766Z,24.70
2019-05-26T12:33:56.730Z,24.70
2019-05-26T12:36:30.034Z,24.60
2019-05-26T12:39:02.298Z,24.50
2019-05-26T12:41:37.146Z,24.50
2019-05-26T12:44:11.070Z,24.50
2019-05-26T12:46:43.764Z,24.60
2019-05-26T12:49:16.190Z,24.60
2019-05-26T12:51:48.561Z,24.60
2019-05-26T12:54:20.919Z,24.60
2019-05-26T12:56:53.284Z,24.70
2019-05-26T12:59:25.646Z,24.70
2019-05-26T13:01:57.953Z,24.70
2019-05-26T13:04:30.198Z,24.70
2019-05-26T13:07:02.522Z,24.80
2019-05-26T13:09:34.810Z,24.80
2019-05-26T13:12:07.459Z,24.90
2019-05-26T13:14:39.805Z,25.00
2019-05-26T13:17:12.478Z,25.00
2019-05-26T13:19:44.914Z,25.10
2019-05-26T13:22:36.882Z,25.10
2019-05-26T13:25:13.820Z,25.20
2019-05-26T13:27:46.351Z,25.30
2019-05-26T13:30:19.930Z,25.30
2019-05-26T13:32:52.374Z,25.40
2019-05-26T13:35:24.876Z,25.50
2019-05-26T13:37:57.162Z,25.60
2019-05-26T13:40:29.772Z,25.70
2019-05-26T13:43:02.086Z,25.80
2019-05-26T13:45:34.538Z,25.90
2019-05-26T13:48:07.217Z,26.00
2019-05-26T13:50:39.566Z,26.00
2019-05-26T13:53:11.933Z,26.10
2019-05-26T13:55:44.370Z,26.10
2019-05-26T13:58:16.646Z,26.20
2019-05-26T14:00:48.952Z,26.30
2019-05-26T14:03:24.189Z,26.30
2019-05-26T14:05:55.213Z,26.30
2019-05-26T14:08:27.506Z,26.40
2019-05-26T14:11:00.027Z,26.50
2019-05-26T14:13:32.266Z,26.60
2019-05-26T14:16:04.491Z,26.60
2019-05-26T14:18:37.659Z,26.60
2019-05-26T14:21:09.946Z,26.70
2019-05-26T14:23:42.301Z,26.80
2019-05-26T14:26:14.573Z,26.80
2019-05-26T14:28:46.973Z,26.80
2019-05-26T14:31:19.236Z,26.80
2019-05-26T14:33:51.478Z,26.80
2019-05-26T14:36:23.692Z,26.80
2019-05-26T14:38:56.028Z,26.70
2019-05-26T14:41:28.318Z,26.60
2019-05-26T14:44:00.761Z,26.60
2019-05-26T14:46:33.033Z,26.50
2019-05-26T14:49:06.292Z,26.50
2019-05-26T14:51:38.551Z,26.40
2019-05-26T14:54:12.194Z,26.40
2019-05-26T14:56:44.584Z,26.30
2019-05-26T14:59:16.847Z,26.40
2019-05-26T15:01:49.084Z,26.30
2019-05-26T15:04:21.348Z,26.40
2019-05-26T15:06:53.653Z,26.40
2019-05-26T15:09:25.937Z,26.30
2019-05-26T15:11:58.191Z,26.30
2019-05-26T15:14:30.421Z,26.30
2019-05-26T15:17:02.737Z,26.30
2019-05-26T15:19:34.974Z,26.30
2019-05-26T15:22:07.189Z,26.30
2019-05-26T15:24:39.493Z,26.30
2019-05-26T15:27:11.834Z,26.20
2019-05-26T15:29:44.318Z,26.20
2019-05-26T15:32:16.701Z,26.20
2019-05-26T15:34:49.107Z,26.20
2019-05-26T15:37:21.302Z,26.20
2019-05-26T15:39:54.509Z,26.20
2019-05-26T15:42:26.725Z,26.10
2019-05-26T15:44:59.148Z,26.10
2019-05-26T15:47:31.389Z,26.10
2019-05-26T15:50:05.057Z,26.10
2019-05-26T15:52:37.385Z,26.00
2019-05-26T15:55:09.682Z,26.00
2019-05-26T15:57:41.966Z,26.00
2019-05-26T16:00:14.776Z,25.90
2019-05-26T16:02:47.106Z,25.90
2019-05-26T16:05:19.297Z,25.80
2019-05-26T16:07:51.978Z,25.70
2019-05-26T16:10:24.466Z,25.60
2019-05-26T16:12:56.785Z,25.60
2019-05-26T16:15:29.147Z,25.50
2019-05-26T16:18:01.326Z,25.40
2019-05-26T16:20:33.669Z,25.40
2019-05-26T16:23:08.771Z,25.30
2019-05-26T16:25:39.932Z,25.30
2019-05-26T16:28:12.507Z,25.30
2019-05-26T16:30:44.701Z,25.30
2019-05-26T16:33:16.977Z,25.30
2019-05-26T16:35:49.212Z,25.30
2019-05-26T16:38:21.452Z,25.40
2019-05-26T16:40:54.045Z,25.40
2019-05-26T16:43:26.422Z,25.40
2019-05-26T16:45:58.796Z,25.50
2019-05-26T16:48:31.073Z,25.50
2019-05-26T16:51:04.167Z,25.60
2019-05-26T16:53:36.674Z,25.60
2019-05-26T16:56:10.323Z,25.70
2019-05-26T16:58:43.124Z,25.70
2019-05-26T17:01:15.486Z,25.70
2019-05-26T17:03:47.656Z,25.70
2019-05-26T17:06:21.088Z,25.70
2019-05-26T17:08:53.266Z,25.60
2019-05-26T17:11:25.715Z,25.50
2019-05-26T17:13:58.341Z,25.50
2019-05-26T17:16:30.722Z,25.40
2019-05-26T17:19:02.966Z,25.30
2019-05-26T17:21:35.494Z,25.20
2019-05-26T17:24:07.919Z,25.20
2019-05-26T17:26:40.276Z,25.10
2019-05-26T17:29:12.611Z,25.00
2019-05-26T17:31:47.263Z,25.00
2019-05-26T17:34:19.842Z,24.90
2019-05-26T17:36:52.223Z,24.80
2019-05-26T17:39:24.693Z,24.80
2019-05-26T17:41:56.872Z,24.70
2019-05-26T17:44:29.074Z,24.70
2019-05-26T17:47:01.465Z,24.60
2019-05-26T17:49:33.824Z,24.50
2019-05-26T17:52:07.105Z,24.50
2019-05-26T17:54:42.433Z,24.40
2019-05-26T17:57:16.295Z,24.40
2019-05-26T17:59:48.699Z,24.30
2019-05-26T18:02:23.232Z,24.30
2019-05-26T18:04:55.528Z,24.30
2019-05-26T18:07:27.834Z,24.20
2019-05-26T18:10:03.141Z,24.10
2019-05-26T18:12:35.442Z,24.10
2019-05-26T18:15:10.109Z,24.10
2019-05-26T18:17:47.254Z,24.00
2019-05-26T18:20:17.049Z,24.00
2019-05-26T18:22:49.534Z,23.90
2019-05-26T18:25:21.859Z,23.90
2019-05-26T18:27:54.213Z,23.80
2019-05-26T18:30:26.571Z,23.80
2019-05-26T18:32:58.865Z,23.80
2019-05-26T18:35:31.264Z,23.70
2019-05-26T18:38:03.707Z,23.70
2019-05-26T18:40:36.004Z,23.70
2019-05-26T18:43:09.262Z,23.60
2019-05-26T18:45:41.476Z,23.50
2019-05-26T18:48:13.942Z,23.50
2019-05-26T18:50:46.229Z,23.50
2019-05-26T18:53:18.678Z,23.40
2019-05-26T18:55:50.919Z,23.40
2019-05-26T18:58:23.410Z,23.30
2019-05-26T19:00:55.859Z,23.30
2019-05-26T19:03:28.151Z,23.20
2019-05-26T19:06:00.412Z,23.20
2019-05-26T19:08:32.612Z,23.10
2019-05-26T19:11:05.023Z,23.00
2019-05-26T19:13:37.661Z,22.90
2019-05-26T19:16:09.926Z,22.90
2019-05-26T19:18:42.453Z,22.80
2019-05-26T19:21:14.974Z,22.70
2019-05-26T19:23:47.545Z,22.70
2019-05-26T19:26:20.042Z,22.60
2019-05-26T19:28:52.387Z,22.50
2019-05-26T19:31:24.795Z,22.50
2019-05-26T19:33:57.424Z,22.40
2019-05-26T19:36:29.728Z,22.30
2019-05-26T19:39:02.534Z,22.30
2019-05-26T19:41:39.084Z,22.20
2019-05-26T19:44:10.589Z,22.10
2019-05-26T19:46:44.036Z,22.10
2019-05-26T19:49:16.675Z,22.00
2019-05-26T19:51:49.044Z,21.90
2019-05-26T19:54:21.628Z,21.90
2019-05-26T19:56:54.073Z,21.80
2019-05-26T19:59:26.416Z,21.80
2019-05-26T20:01:58.777Z,21.70
2019-05-26T20:04:32.491Z,21.70
2019-05-26T20:07:04.984Z,21.70
2019-05-26T20:09:37.429Z,21.60
2019-05-26T20:12:12.634Z,21.60
2019-05-26T20:14:44.935Z,21.50
2019-05-26T20:17:17.234Z,21.40
2019-05-26T20:19:49.591Z,21.30
2019-05-26T20:22:24.443Z,21.30
2019-05-26T20:25:00.730Z,21.20
2019-05-26T20:27:33.904Z,21.20
2019-05-26T20:30:07.452Z,21.10
2019-05-26T20:32:39.686Z,21.00
2019-05-26T20:35:12.088Z,21.00
2019-05-26T20:37:44.519Z,20.90
2019-05-26T20:40:17.661Z,20.90
2019-05-26T20:42:49.822Z,20.80
2019-05-26T20:45:22.134Z,20.70
2019-05-26T20:47:54.333Z,20.60
2019-05-26T20:50:29.545Z,20.50
2019-05-26T20:53:00.660Z,20.50
2019-05-26T20:55:33.065Z,20.50
2019-05-26T20:58:05.358Z,20.40
2019-05-26T21:00:37.657Z,20.30
2019-05-26T21:03:09.873Z,20.30
2019-05-26T21:05:42.132Z,20.30
2019-05-26T21:08:14.722Z,20.20
2019-05-26T21:10:47.026Z,20.20
2019-05-26T21:13:19.253Z,20.10
2019-05-26T21:15:51.686Z,20.00
2019-05-26T21:18:23.957Z,20.00
2019-05-26T21:20:56.212Z,20.00
2019-05-26T21:23:28.469Z,19.90
2019-05-26T21:26:01.025Z,19.90
2019-05-26T21:28:33.424Z,19.80
2019-05-26T21:31:05.786Z,19.80
2019-05-26T21:33:37.972Z,19.70
2019-05-26T21:36:10.512Z,19.70
2019-05-26T21:38:42.818Z,19.60
2019-05-26T21:41:15.236Z,19.60
2019-05-26T21:43:47.458Z,19.60
2019-05-26T21:46:19.677Z,19.50
2019-05-26T21:48:52.854Z,19.50
2019-05-26T21:51:25.421Z,19.40
2019-05-26T21:53:58.112Z,19.40
2019-05-26T21:56:31.792Z,19.40
2019-05-26T21:59:04.033Z,19.40
2019-05-26T22:01:36.325Z,19.30
2019-05-26T22:04:08.528Z,19.30
2019-05-26T22:06:40.796Z,19.20
2019-05-26T22:09:13.029Z,19.20
2019-05-26T22:11:45.198Z,19.20
2019-05-26T22:14:17.484Z,19.10
2019-05-26T22:16:49.699Z,19.10
2019-05-26T22:19:21.950Z,19.10
2019-05-26T22:21:54.266Z,18.90
2019-05-26T22:24:26.550Z,18.90
2019-05-26T22:26:58.934Z,18.80
2019-05-26T22:29:31.204Z,18.70
2019-05-26T22:32:03.454Z,18.70
2019-05-26T22:34:35.554Z,18.70
2019-05-26T22:37:07.776Z,18.60
2019-05-26T22:39:39.961Z,18.60
2019-05-26T22:42:12.212Z,18.60
2019-05-26T22:44:44.842Z,18.50
2019-05-26T22:47:17.119Z,18.50
2019-05-26T22:49:49.261Z,18.50
2019-05-26T22:52:21.810Z,18.40
2019-05-26T22:54:54.093Z,18.30
2019-05-26T22:57:27.196Z,18.40
2019-05-26T22:59:59.442Z,18.30
2019-05-26T23:02:31.664Z,18.30
2019-05-26T23:05:03.986Z,18.20
2019-05-26T23:07:36.978Z,18.20
2019-05-26T23:10:09.669Z,18.20
2019-05-26T23:12:42.966Z,18.20
2019-05-26T23:15:15.674Z,18.10
2019-05-26T23:17:48.051Z,18.10
2019-05-26T23:20:22.305Z,18.10
2019-05-26T23:22:54.546Z,18.00
2019-05-26T23:25:26.744Z,18.00
2019-05-26T23:27:59.044Z,18.00
2019-05-26T23:30:31.298Z,18.00
2019-05-26T23:33:03.660Z,17.90
2019-05-26T23:35:35.813Z,17.90
2019-05-26T23:38:08.086Z,17.90
2019-05-26T23:40:40.295Z,17.80
2019-05-26T23:43:12.582Z,17.80
2019-05-26T23:45:44.840Z,17.70
2019-05-26T23:48:17.145Z,17.70
2019-05-26T23:50:49.356Z,17.70
2019-05-26T23:53:21.928Z,17.70
2019-05-26T23:55:54.193Z,17.70
2019-05-26T23:58:26.511Z,17.70
